sensor_id;sensor_type;location;lat;lon;timestamp;P1;durP1;ratioP1;P2;durP2;ratioP2
49031;SDS011;63443;48.366;10.876;2022-12-07T00:01:33;13.25;;;12.07;;
49031;SDS011;63443;48.366;10.876;2022-12-07T00:04:01;14.00;;;12.85;;
49031;SDS011;63443;48.366;10.876;2022-12-07T00:06:34;13.90;;;12.60;;
49031;SDS011;63443;48.366;10.876;2022-12-07T00:09:02;14.55;;;13.25;;
49031;SDS011;63443;48.366;10.876;2022-12-07T00:11:29;14.27;;;13.07;;
49031;SDS011;63443;48.366;10.876;2022-12-07T00:13:58;13.48;;;12.13;;
49031;SDS011;63443;48.366;10.876;2022-12-07T00:16:27;13.65;;;12.45;;
49031;SDS011;63443;48.366;10.876;2022-12-07T00:18:54;13.97;;;12.73;;
49031;SDS011;63443;48.366;10.876;2022-12-07T00:21:24;14.20;;;12.77;;
49031;SDS011;63443;48.366;10.876;2022-12-07T00:23:51;14.30;;;13.00;;
49031;SDS011;63443;48.366;10.876;2022-12-07T00:26:19;14.25;;;12.82;;
49031;SDS011;63443;48.366;10.876;2022-12-07T00:28:47;15.23;;;13.85;;
49031;SDS011;63443;48.366;10.876;2022-12-07T00:31:20;14.68;;;13.38;;
49031;SDS011;63443;48.366;10.876;2022-12-07T00:33:47;14.43;;;13.13;;
49031;SDS011;63443;48.366;10.876;2022-12-07T00:36:14;14.18;;;12.88;;
49031;SDS011;63443;48.366;10.876;2022-12-07T00:38:41;14.45;;;13.05;;
49031;SDS011;63443;48.366;10.876;2022-12-07T00:41:07;14.30;;;13.07;;
49031;SDS011;63443;48.366;10.876;2022-12-07T00:43:39;14.32;;;13.02;;
49031;SDS011;63443;48.366;10.876;2022-12-07T00:46:06;13.77;;;12.57;;
49031;SDS011;63443;48.366;10.876;2022-12-07T00:48:32;14.20;;;12.80;;
49031;SDS011;63443;48.366;10.876;2022-12-07T00:50:58;14.88;;;13.57;;
49031;SDS011;63443;48.366;10.876;2022-12-07T00:53:23;13.57;;;12.48;;
49031;SDS011;63443;48.366;10.876;2022-12-07T00:55:50;14.95;;;13.48;;
49031;SDS011;63443;48.366;10.876;2022-12-07T00:58:17;14.48;;;13.27;;
49031;SDS011;63443;48.366;10.876;2022-12-07T01:00:43;13.82;;;12.63;;
49031;SDS011;63443;48.366;10.876;2022-12-07T01:03:09;14.60;;;13.23;;
49031;SDS011;63443;48.366;10.876;2022-12-07T01:05:37;15.02;;;13.05;;
49031;SDS011;63443;48.366;10.876;2022-12-07T01:08:03;13.93;;;12.47;;
49031;SDS011;63443;48.366;10.876;2022-12-07T01:10:29;14.35;;;13.05;;
49031;SDS011;63443;48.366;10.876;2022-12-07T01:12:55;15.70;;;14.20;;
49031;SDS011;63443;48.366;10.876;2022-12-07T01:15:21;13.70;;;12.50;;
49031;SDS011;63443;48.366;10.876;2022-12-07T01:17:47;14.77;;;13.47;;
49031;SDS011;63443;48.366;10.876;2022-12-07T01:20:12;18.73;;;16.83;;
49031;SDS011;63443;48.366;10.876;2022-12-07T01:22:41;15.52;;;14.02;;
49031;SDS011;63443;48.366;10.876;2022-12-07T01:25:07;13.80;;;12.48;;
49031;SDS011;63443;48.366;10.876;2022-12-07T01:27:35;16.33;;;14.80;;
49031;SDS011;63443;48.366;10.876;2022-12-07T01:30:00;15.10;;;13.73;;
49031;SDS011;63443;48.366;10.876;2022-12-07T01:32:28;15.27;;;13.88;;
49031;SDS011;63443;48.366;10.876;2022-12-07T01:34:54;15.13;;;13.63;;
49031;SDS011;63443;48.366;10.876;2022-12-07T01:37:19;16.33;;;13.37;;
49031;SDS011;63443;48.366;10.876;2022-12-07T01:39:48;15.00;;;13.60;;
49031;SDS011;63443;48.366;10.876;2022-12-07T01:42:17;16.00;;;14.60;;
49031;SDS011;63443;48.366;10.876;2022-12-07T01:47:47;14.43;;;13.02;;
49031;SDS011;63443;48.366;10.876;2022-12-07T01:50:20;13.80;;;12.60;;
49031;SDS011;63443;48.366;10.876;2022-12-07T01:52:49;15.40;;;14.00;;
49031;SDS011;63443;48.366;10.876;2022-12-07T01:55:17;14.73;;;13.43;;
49031;SDS011;63443;48.366;10.876;2022-12-07T01:57:45;14.33;;;13.13;;
49031;SDS011;63443;48.366;10.876;2022-12-07T02:00:15;14.73;;;13.43;;
49031;SDS011;63443;48.366;10.876;2022-12-07T02:02:52;14.97;;;13.77;;
49031;SDS011;63443;48.366;10.876;2022-12-07T02:05:36;15.50;;;14.13;;
49031;SDS011;63443;48.366;10.876;2022-12-07T02:08:05;14.82;;;13.52;;
49031;SDS011;63443;48.366;10.876;2022-12-07T02:10:31;15.68;;;14.27;;
49031;SDS011;63443;48.366;10.876;2022-12-07T02:15:53;15.60;;;14.30;;
49031;SDS011;63443;48.366;10.876;2022-12-07T02:29:11;15.90;;;14.48;;
49031;SDS011;63443;48.366;10.876;2022-12-07T02:31:41;15.88;;;14.48;;
49031;SDS011;63443;48.366;10.876;2022-12-07T02:37:03;15.27;;;13.88;;
49031;SDS011;63443;48.366;10.876;2022-12-07T02:39:46;16.38;;;14.82;;
49031;SDS011;63443;48.366;10.876;2022-12-07T02:42:42;15.40;;;14.10;;
49031;SDS011;63443;48.366;10.876;2022-12-07T02:45:09;15.32;;;14.02;;
49031;SDS011;63443;48.366;10.876;2022-12-07T02:47:38;16.17;;;14.77;;
49031;SDS011;63443;48.366;10.876;2022-12-07T02:50:06;15.70;;;14.27;;
49031;SDS011;63443;48.366;10.876;2022-12-07T02:52:32;15.33;;;14.03;;
49031;SDS011;63443;48.366;10.876;2022-12-07T02:54:57;14.67;;;13.37;;
49031;SDS011;63443;48.366;10.876;2022-12-07T02:57:59;14.82;;;13.55;;
49031;SDS011;63443;48.366;10.876;2022-12-07T03:00:32;15.65;;;14.35;;
49031;SDS011;63443;48.366;10.876;2022-12-07T03:03:09;14.70;;;13.40;;
49031;SDS011;63443;48.366;10.876;2022-12-07T03:08:17;16.27;;;14.85;;
49031;SDS011;63443;48.366;10.876;2022-12-07T03:11:08;15.10;;;13.70;;
49031;SDS011;63443;48.366;10.876;2022-12-07T03:13:45;14.85;;;13.45;;
49031;SDS011;63443;48.366;10.876;2022-12-07T03:16:33;15.57;;;14.18;;
49031;SDS011;63443;48.366;10.876;2022-12-07T03:19:15;15.15;;;13.77;;
49031;SDS011;63443;48.366;10.876;2022-12-07T03:22:05;14.95;;;13.73;;
49031;SDS011;63443;48.366;10.876;2022-12-07T03:24:45;15.60;;;14.15;;
49031;SDS011;63443;48.366;10.876;2022-12-07T03:27:37;16.50;;;14.90;;
49031;SDS011;63443;48.366;10.876;2022-12-07T03:30:15;14.60;;;13.30;;
49031;SDS011;63443;48.366;10.876;2022-12-07T03:32:51;14.05;;;12.85;;
49031;SDS011;63443;48.366;10.876;2022-12-07T03:35:25;14.73;;;13.43;;
49031;SDS011;63443;48.366;10.876;2022-12-07T03:38:04;15.63;;;14.30;;
49031;SDS011;63443;48.366;10.876;2022-12-07T03:43:24;15.55;;;14.25;;
49031;SDS011;63443;48.366;10.876;2022-12-07T03:45:56;16.27;;;14.88;;
49031;SDS011;63443;48.366;10.876;2022-12-07T03:48:28;16.87;;;15.43;;
49031;SDS011;63443;48.366;10.876;2022-12-07T03:53:59;16.70;;;15.27;;
49031;SDS011;63443;48.366;10.876;2022-12-07T03:56:32;16.45;;;15.05;;
49031;SDS011;63443;48.366;10.876;2022-12-07T03:58:58;16.92;;;15.43;;
49031;SDS011;63443;48.366;10.876;2022-12-07T04:01:24;15.63;;;14.33;;
49031;SDS011;63443;48.366;10.876;2022-12-07T04:03:50;16.40;;;14.95;;
49031;SDS011;63443;48.366;10.876;2022-12-07T04:06:16;16.10;;;14.70;;
49031;SDS011;63443;48.366;10.876;2022-12-07T04:08:42;15.13;;;13.80;;
49031;SDS011;63443;48.366;10.876;2022-12-07T04:11:07;15.20;;;13.87;;
49031;SDS011;63443;48.366;10.876;2022-12-07T04:13:33;15.90;;;14.50;;
49031;SDS011;63443;48.366;10.876;2022-12-07T04:16:18;17.23;;;15.57;;
49031;SDS011;63443;48.366;10.876;2022-12-07T04:18:44;17.27;;;15.67;;
49031;SDS011;63443;48.366;10.876;2022-12-07T04:21:10;16.38;;;14.77;;
49031;SDS011;63443;48.366;10.876;2022-12-07T04:23:35;16.92;;;15.43;;
49031;SDS011;63443;48.366;10.876;2022-12-07T04:26:01;16.67;;;15.15;;
49031;SDS011;63443;48.366;10.876;2022-12-07T04:28:26;17.38;;;15.80;;
49031;SDS011;63443;48.366;10.876;2022-12-07T04:30:52;18.27;;;16.57;;
49031;SDS011;63443;48.366;10.876;2022-12-07T04:33:17;17.57;;;16.07;;
49031;SDS011;63443;48.366;10.876;2022-12-07T04:35:43;19.47;;;17.67;;
49031;SDS011;63443;48.366;10.876;2022-12-07T04:38:09;19.77;;;17.98;;
49031;SDS011;63443;48.366;10.876;2022-12-07T04:40:34;19.38;;;17.63;;
49031;SDS011;63443;48.366;10.876;2022-12-07T04:43:00;19.15;;;17.45;;
49031;SDS011;63443;48.366;10.876;2022-12-07T04:45:26;18.95;;;17.10;;
49031;SDS011;63443;48.366;10.876;2022-12-07T04:47:51;18.52;;;16.77;;
49031;SDS011;63443;48.366;10.876;2022-12-07T04:50:17;20.15;;;18.25;;
49031;SDS011;63443;48.366;10.876;2022-12-07T04:52:42;20.20;;;18.38;;
49031;SDS011;63443;48.366;10.876;2022-12-07T04:55:08;20.27;;;18.42;;
49031;SDS011;63443;48.366;10.876;2022-12-07T04:57:33;20.07;;;18.07;;
49031;SDS011;63443;48.366;10.876;2022-12-07T04:59:59;19.63;;;17.93;;
49031;SDS011;63443;48.366;10.876;2022-12-07T05:02:25;21.43;;;19.43;;
49031;SDS011;63443;48.366;10.876;2022-12-07T05:04:50;21.70;;;19.70;;
49031;SDS011;63443;48.366;10.876;2022-12-07T05:07:16;21.93;;;20.00;;
49031;SDS011;63443;48.366;10.876;2022-12-07T05:09:41;20.77;;;18.90;;
49031;SDS011;63443;48.366;10.876;2022-12-07T05:12:07;21.20;;;19.20;;
49031;SDS011;63443;48.366;10.876;2022-12-07T05:14:32;20.53;;;18.73;;
49031;SDS011;63443;48.366;10.876;2022-12-07T05:16:58;19.33;;;17.50;;
49031;SDS011;63443;48.366;10.876;2022-12-07T05:19:23;19.60;;;17.83;;
49031;SDS011;63443;48.366;10.876;2022-12-07T05:21:51;21.25;;;19.35;;
49031;SDS011;63443;48.366;10.876;2022-12-07T05:24:16;20.97;;;18.97;;
49031;SDS011;63443;48.366;10.876;2022-12-07T05:26:42;20.70;;;18.75;;
49031;SDS011;63443;48.366;10.876;2022-12-07T05:29:10;20.95;;;19.05;;
49031;SDS011;63443;48.366;10.876;2022-12-07T05:31:37;20.10;;;18.30;;
49031;SDS011;63443;48.366;10.876;2022-12-07T05:34:03;21.25;;;19.27;;
49031;SDS011;63443;48.366;10.876;2022-12-07T05:36:28;19.83;;;18.13;;
49031;SDS011;63443;48.366;10.876;2022-12-07T05:38:56;19.53;;;17.83;;
49031;SDS011;63443;48.366;10.876;2022-12-07T05:41:22;19.52;;;17.63;;
49031;SDS011;63443;48.366;10.876;2022-12-07T05:44:06;20.00;;;18.23;;
49031;SDS011;63443;48.366;10.876;2022-12-07T05:46:32;20.27;;;18.20;;
49031;SDS011;63443;48.366;10.876;2022-12-07T05:48:58;20.30;;;18.40;;
49031;SDS011;63443;48.366;10.876;2022-12-07T05:51:24;20.63;;;18.73;;
49031;SDS011;63443;48.366;10.876;2022-12-07T05:53:49;20.63;;;18.83;;
49031;SDS011;63443;48.366;10.876;2022-12-07T05:56:15;21.42;;;19.42;;
49031;SDS011;63443;48.366;10.876;2022-12-07T05:58:40;21.52;;;19.52;;
49031;SDS011;63443;48.366;10.876;2022-12-07T06:01:24;21.73;;;19.77;;
49031;SDS011;63443;48.366;10.876;2022-12-07T06:03:50;22.03;;;19.93;;
49031;SDS011;63443;48.366;10.876;2022-12-07T06:06:15;22.47;;;20.37;;
49031;SDS011;63443;48.366;10.876;2022-12-07T06:08:41;23.93;;;21.63;;
49031;SDS011;63443;48.366;10.876;2022-12-07T06:11:07;22.63;;;20.60;;
49031;SDS011;63443;48.366;10.876;2022-12-07T06:13:51;23.85;;;21.65;;
49031;SDS011;63443;48.366;10.876;2022-12-07T06:16:16;23.40;;;21.20;;
49031;SDS011;63443;48.366;10.876;2022-12-07T06:18:42;22.70;;;20.50;;
49031;SDS011;63443;48.366;10.876;2022-12-07T06:21:07;22.20;;;19.97;;
49031;SDS011;63443;48.366;10.876;2022-12-07T06:23:33;24.87;;;22.30;;
49031;SDS011;63443;48.366;10.876;2022-12-07T06:25:58;24.80;;;22.40;;
49031;SDS011;63443;48.366;10.876;2022-12-07T06:28:24;24.33;;;21.97;;
49031;SDS011;63443;48.366;10.876;2022-12-07T06:30:56;24.67;;;22.20;;
49031;SDS011;63443;48.366;10.876;2022-12-07T06:33:26;25.40;;;22.70;;
49031;SDS011;63443;48.366;10.876;2022-12-07T06:35:52;25.55;;;23.15;;
49031;SDS011;63443;48.366;10.876;2022-12-07T06:38:18;26.13;;;23.53;;
49031;SDS011;63443;48.366;10.876;2022-12-07T06:40:44;25.95;;;23.35;;
49031;SDS011;63443;48.366;10.876;2022-12-07T06:43:09;25.58;;;23.08;;
49031;SDS011;63443;48.366;10.876;2022-12-07T06:45:35;26.23;;;23.67;;
49031;SDS011;63443;48.366;10.876;2022-12-07T06:48:00;26.52;;;23.63;;
49031;SDS011;63443;48.366;10.876;2022-12-07T06:50:26;29.08;;;26.17;;
49031;SDS011;63443;48.366;10.876;2022-12-07T06:52:51;26.88;;;24.27;;
49031;SDS011;63443;48.366;10.876;2022-12-07T06:55:17;28.30;;;25.40;;
49031;SDS011;63443;48.366;10.876;2022-12-07T06:57:43;27.77;;;24.97;;
49031;SDS011;63443;48.366;10.876;2022-12-07T07:00:09;28.80;;;25.87;;
49031;SDS011;63443;48.366;10.876;2022-12-07T07:02:35;30.60;;;27.40;;
49031;SDS011;63443;48.366;10.876;2022-12-07T07:05:00;29.60;;;26.60;;
49031;SDS011;63443;48.366;10.876;2022-12-07T07:07:26;28.03;;;25.23;;
49031;SDS011;63443;48.366;10.876;2022-12-07T07:09:52;30.58;;;27.27;;
49031;SDS011;63443;48.366;10.876;2022-12-07T07:12:17;32.25;;;28.77;;
49031;SDS011;63443;48.366;10.876;2022-12-07T07:14:43;31.42;;;28.02;;
49031;SDS011;63443;48.366;10.876;2022-12-07T07:17:08;31.45;;;28.23;;
49031;SDS011;63443;48.366;10.876;2022-12-07T07:19:34;30.10;;;26.93;;
49031;SDS011;63443;48.366;10.876;2022-12-07T07:22:00;33.27;;;29.13;;
49031;SDS011;63443;48.366;10.876;2022-12-07T07:24:25;27.43;;;24.53;;
49031;SDS011;63443;48.366;10.876;2022-12-07T07:26:51;27.40;;;24.63;;
49031;SDS011;63443;48.366;10.876;2022-12-07T07:29:16;30.93;;;27.63;;
49031;SDS011;63443;48.366;10.876;2022-12-07T07:31:42;29.63;;;26.63;;
49031;SDS011;63443;48.366;10.876;2022-12-07T07:34:08;29.75;;;26.77;;
49031;SDS011;63443;48.366;10.876;2022-12-07T07:36:33;28.60;;;25.60;;
49031;SDS011;63443;48.366;10.876;2022-12-07T07:38:59;30.17;;;26.75;;
49031;SDS011;63443;48.366;10.876;2022-12-07T07:41:24;28.45;;;25.50;;
49031;SDS011;63443;48.366;10.876;2022-12-07T07:43:50;28.23;;;25.33;;
49031;SDS011;63443;48.366;10.876;2022-12-07T07:46:15;30.73;;;27.53;;
49031;SDS011;63443;48.366;10.876;2022-12-07T07:48:41;29.27;;;26.27;;
49031;SDS011;63443;48.366;10.876;2022-12-07T07:51:07;29.00;;;26.03;;
49031;SDS011;63443;48.366;10.876;2022-12-07T07:53:33;28.67;;;25.77;;
49031;SDS011;63443;48.366;10.876;2022-12-07T07:55:59;28.70;;;25.67;;
49031;SDS011;63443;48.366;10.876;2022-12-07T07:58:24;28.87;;;25.97;;
49031;SDS011;63443;48.366;10.876;2022-12-07T08:00:50;29.55;;;26.58;;
49031;SDS011;63443;48.366;10.876;2022-12-07T08:03:16;32.72;;;29.38;;
49031;SDS011;63443;48.366;10.876;2022-12-07T08:05:41;28.83;;;25.95;;
49031;SDS011;63443;48.366;10.876;2022-12-07T08:08:07;25.47;;;22.80;;
49031;SDS011;63443;48.366;10.876;2022-12-07T08:10:33;26.73;;;23.97;;
49031;SDS011;63443;48.366;10.876;2022-12-07T08:13:00;27.13;;;24.33;;
49031;SDS011;63443;48.366;10.876;2022-12-07T08:15:46;40.77;;;36.57;;
49031;SDS011;63443;48.366;10.876;2022-12-07T08:18:13;27.88;;;25.10;;
49031;SDS011;63443;48.366;10.876;2022-12-07T08:20:39;25.60;;;23.15;;
49031;SDS011;63443;48.366;10.876;2022-12-07T08:23:06;27.52;;;24.67;;
49031;SDS011;63443;48.366;10.876;2022-12-07T08:25:33;29.40;;;26.35;;
49031;SDS011;63443;48.366;10.876;2022-12-07T08:27:59;26.38;;;23.55;;
49031;SDS011;63443;48.366;10.876;2022-12-07T08:30:26;27.80;;;25.00;;
49031;SDS011;63443;48.366;10.876;2022-12-07T08:32:52;26.90;;;24.20;;
49031;SDS011;63443;48.366;10.876;2022-12-07T08:35:17;27.40;;;24.70;;
49031;SDS011;63443;48.366;10.876;2022-12-07T08:37:43;25.23;;;22.80;;
49031;SDS011;63443;48.366;10.876;2022-12-07T08:40:09;29.75;;;26.83;;
49031;SDS011;63443;48.366;10.876;2022-12-07T08:42:39;25.40;;;22.95;;
49031;SDS011;63443;48.366;10.876;2022-12-07T08:45:06;36.75;;;32.95;;
49031;SDS011;63443;48.366;10.876;2022-12-07T08:47:37;23.85;;;21.48;;
49031;SDS011;63443;48.366;10.876;2022-12-07T08:50:07;24.70;;;22.40;;
49031;SDS011;63443;48.366;10.876;2022-12-07T08:52:34;21.70;;;19.50;;
49031;SDS011;63443;48.366;10.876;2022-12-07T08:55:02;23.63;;;21.33;;
49031;SDS011;63443;48.366;10.876;2022-12-07T08:57:29;23.92;;;21.70;;
49031;SDS011;63443;48.366;10.876;2022-12-07T08:59:58;22.42;;;20.25;;
49031;SDS011;63443;48.366;10.876;2022-12-07T09:02:24;21.07;;;19.13;;
49031;SDS011;63443;48.366;10.876;2022-12-07T09:04:49;20.07;;;18.17;;
49031;SDS011;63443;48.366;10.876;2022-12-07T09:07:15;22.27;;;20.08;;
49031;SDS011;63443;48.366;10.876;2022-12-07T09:09:40;20.77;;;18.77;;
49031;SDS011;63443;48.366;10.876;2022-12-07T09:12:06;18.55;;;16.75;;
49031;SDS011;63443;48.366;10.876;2022-12-07T09:14:32;20.07;;;18.17;;
49031;SDS011;63443;48.366;10.876;2022-12-07T09:17:04;17.17;;;15.63;;
49031;SDS011;63443;48.366;10.876;2022-12-07T09:19:34;18.88;;;17.08;;
49031;SDS011;63443;48.366;10.876;2022-12-07T09:22:00;19.17;;;17.40;;
49031;SDS011;63443;48.366;10.876;2022-12-07T09:24:26;18.40;;;16.63;;
49031;SDS011;63443;48.366;10.876;2022-12-07T09:26:52;18.33;;;16.63;;
49031;SDS011;63443;48.366;10.876;2022-12-07T09:29:18;18.35;;;16.70;;
49031;SDS011;63443;48.366;10.876;2022-12-07T09:31:43;18.73;;;16.92;;
49031;SDS011;63443;48.366;10.876;2022-12-07T09:34:09;18.50;;;16.87;;
49031;SDS011;63443;48.366;10.876;2022-12-07T09:36:34;17.73;;;16.13;;
49031;SDS011;63443;48.366;10.876;2022-12-07T09:39:00;17.23;;;15.63;;
49031;SDS011;63443;48.366;10.876;2022-12-07T09:41:26;18.17;;;16.47;;
49031;SDS011;63443;48.366;10.876;2022-12-07T09:43:56;18.25;;;16.52;;
49031;SDS011;63443;48.366;10.876;2022-12-07T09:46:28;17.53;;;15.93;;
49031;SDS011;63443;48.366;10.876;2022-12-07T09:48:59;16.20;;;14.80;;
49031;SDS011;63443;48.366;10.876;2022-12-07T09:51:25;14.97;;;13.57;;
49031;SDS011;63443;48.366;10.876;2022-12-07T09:53:54;15.57;;;14.17;;
49031;SDS011;63443;48.366;10.876;2022-12-07T09:56:22;14.27;;;12.98;;
49031;SDS011;63443;48.366;10.876;2022-12-07T09:58:50;14.15;;;12.85;;
49031;SDS011;63443;48.366;10.876;2022-12-07T10:01:21;13.65;;;12.35;;
49031;SDS011;63443;48.366;10.876;2022-12-07T10:03:59;13.35;;;12.25;;
49031;SDS011;63443;48.366;10.876;2022-12-07T10:06:38;12.50;;;11.40;;
49031;SDS011;63443;48.366;10.876;2022-12-07T10:09:11;12.95;;;11.85;;
49031;SDS011;63443;48.366;10.876;2022-12-07T10:14:29;13.23;;;12.02;;
49031;SDS011;63443;48.366;10.876;2022-12-07T10:16:56;12.80;;;11.70;;
49031;SDS011;63443;48.366;10.876;2022-12-07T10:19:24;11.52;;;10.52;;
49031;SDS011;63443;48.366;10.876;2022-12-07T10:24:40;10.57;;;9.68;;
49031;SDS011;63443;48.366;10.876;2022-12-07T10:29:48;10.80;;;9.90;;
49031;SDS011;63443;48.366;10.876;2022-12-07T10:34:42;11.53;;;10.57;;
49031;SDS011;63443;48.366;10.876;2022-12-07T10:39:42;10.50;;;9.18;;
49031;SDS011;63443;48.366;10.876;2022-12-07T10:42:21;9.55;;;8.65;;
49031;SDS011;63443;48.366;10.876;2022-12-07T10:44:49;10.18;;;9.27;;
49031;SDS011;63443;48.366;10.876;2022-12-07T10:51:23;10.65;;;9.65;;
49031;SDS011;63443;48.366;10.876;2022-12-07T10:53:46;10.82;;;9.77;;
49031;SDS011;63443;48.366;10.876;2022-12-07T10:56:51;10.57;;;9.45;;
49031;SDS011;63443;48.366;10.876;2022-12-07T11:02:14;10.40;;;9.47;;
49031;SDS011;63443;48.366;10.876;2022-12-07T11:05:06;11.38;;;10.27;;
49031;SDS011;63443;48.366;10.876;2022-12-07T11:10:57;11.30;;;10.20;;
49031;SDS011;63443;48.366;10.876;2022-12-07T11:13:40;12.05;;;10.85;;
49031;SDS011;63443;48.366;10.876;2022-12-07T11:27:40;12.15;;;10.88;;
49031;SDS011;63443;48.366;10.876;2022-12-07T11:30:14;11.00;;;10.05;;
49031;SDS011;63443;48.366;10.876;2022-12-07T11:37:43;12.00;;;10.90;;
49031;SDS011;63443;48.366;10.876;2022-12-07T11:43:15;14.10;;;10.83;;
49031;SDS011;63443;48.366;10.876;2022-12-07T11:45:44;12.83;;;10.03;;
49031;SDS011;63443;48.366;10.876;2022-12-07T11:48:19;12.50;;;10.60;;
49031;SDS011;63443;48.366;10.876;2022-12-07T11:50:56;11.20;;;9.82;;
49031;SDS011;63443;48.366;10.876;2022-12-07T11:53:35;12.82;;;8.48;;
49031;SDS011;63443;48.366;10.876;2022-12-07T11:56:09;11.02;;;9.65;;
49031;SDS011;63443;48.366;10.876;2022-12-07T12:01:32;11.60;;;10.40;;
49031;SDS011;63443;48.366;10.876;2022-12-07T12:06:38;10.27;;;9.23;;
49031;SDS011;63443;48.366;10.876;2022-12-07T12:22:55;11.50;;;9.75;;
49031;SDS011;63443;48.366;10.876;2022-12-07T12:25:27;10.13;;;9.15;;
49031;SDS011;63443;48.366;10.876;2022-12-07T12:27:57;9.53;;;8.67;;
49031;SDS011;63443;48.366;10.876;2022-12-07T12:33:05;10.73;;;8.50;;
49031;SDS011;63443;48.366;10.876;2022-12-07T12:35:40;11.27;;;8.80;;
49031;SDS011;63443;48.366;10.876;2022-12-07T12:40:50;8.90;;;8.00;;
49031;SDS011;63443;48.366;10.876;2022-12-07T12:48:55;11.27;;;8.80;;
49031;SDS011;63443;48.366;10.876;2022-12-07T12:51:42;11.10;;;8.95;;
49031;SDS011;63443;48.366;10.876;2022-12-07T12:54:19;9.73;;;8.82;;
49031;SDS011;63443;48.366;10.876;2022-12-07T12:59:26;9.90;;;9.00;;
49031;SDS011;63443;48.366;10.876;2022-12-07T13:04:53;9.90;;;8.75;;
49031;SDS011;63443;48.366;10.876;2022-12-07T13:12:59;10.48;;;9.07;;
49031;SDS011;63443;48.366;10.876;2022-12-07T13:15:36;9.45;;;8.48;;
49031;SDS011;63443;48.366;10.876;2022-12-07T13:18:04;8.93;;;8.13;;
49031;SDS011;63443;48.366;10.876;2022-12-07T13:23:12;7.72;;;7.03;;
49031;SDS011;63443;48.366;10.876;2022-12-07T13:25:51;9.35;;;8.38;;
49031;SDS011;63443;48.366;10.876;2022-12-07T13:28:33;8.88;;;7.75;;
49031;SDS011;63443;48.366;10.876;2022-12-07T13:34:01;8.32;;;7.45;;
49031;SDS011;63443;48.366;10.876;2022-12-07T13:36:37;8.77;;;7.73;;
49031;SDS011;63443;48.366;10.876;2022-12-07T13:39:11;8.83;;;7.73;;
49031;SDS011;63443;48.366;10.876;2022-12-07T13:41:43;7.82;;;7.03;;
49031;SDS011;63443;48.366;10.876;2022-12-07T13:44:14;9.00;;;7.47;;
49031;SDS011;63443;48.366;10.876;2022-12-07T13:49:38;11.30;;;8.13;;
49031;SDS011;63443;48.366;10.876;2022-12-07T13:55:00;8.53;;;7.77;;
49031;SDS011;63443;48.366;10.876;2022-12-07T13:57:34;8.73;;;7.82;;
49031;SDS011;63443;48.366;10.876;2022-12-07T14:00:01;8.77;;;7.90;;
49031;SDS011;63443;48.366;10.876;2022-12-07T14:02:31;8.37;;;7.57;;
49031;SDS011;63443;48.366;10.876;2022-12-07T14:08:03;8.32;;;7.53;;
49031;SDS011;63443;48.366;10.876;2022-12-07T14:10:29;9.95;;;7.63;;
49031;SDS011;63443;48.366;10.876;2022-12-07T14:12:56;8.02;;;7.20;;
49031;SDS011;63443;48.366;10.876;2022-12-07T14:15:27;7.78;;;7.00;;
49031;SDS011;63443;48.366;10.876;2022-12-07T14:17:58;8.93;;;8.02;;
49031;SDS011;63443;48.366;10.876;2022-12-07T14:20:29;9.83;;;8.93;;
49031;SDS011;63443;48.366;10.876;2022-12-07T14:23:00;9.65;;;7.72;;
49031;SDS011;63443;48.366;10.876;2022-12-07T14:25:43;9.05;;;8.05;;
49031;SDS011;63443;48.366;10.876;2022-12-07T14:28:25;8.77;;;7.88;;
49031;SDS011;63443;48.366;10.876;2022-12-07T14:30:52;8.10;;;7.30;;
49031;SDS011;63443;48.366;10.876;2022-12-07T14:33:17;8.60;;;7.80;;
49031;SDS011;63443;48.366;10.876;2022-12-07T14:35:44;8.15;;;7.05;;
49031;SDS011;63443;48.366;10.876;2022-12-07T14:38:09;7.30;;;6.70;;
49031;SDS011;63443;48.366;10.876;2022-12-07T14:40:35;8.10;;;7.40;;
49031;SDS011;63443;48.366;10.876;2022-12-07T14:43:01;8.45;;;7.18;;
49031;SDS011;63443;48.366;10.876;2022-12-07T14:45:29;7.70;;;6.07;;
49031;SDS011;63443;48.366;10.876;2022-12-07T14:47:55;10.88;;;9.82;;
49031;SDS011;63443;48.366;10.876;2022-12-07T14:50:22;7.50;;;6.80;;
49031;SDS011;63443;48.366;10.876;2022-12-07T14:52:52;6.67;;;6.13;;
49031;SDS011;63443;48.366;10.876;2022-12-07T14:55:25;7.50;;;6.75;;
49031;SDS011;63443;48.366;10.876;2022-12-07T14:57:52;9.85;;;8.18;;
49031;SDS011;63443;48.366;10.876;2022-12-07T15:00:19;8.98;;;6.70;;
49031;SDS011;63443;48.366;10.876;2022-12-07T15:02:46;6.95;;;6.25;;
49031;SDS011;63443;48.366;10.876;2022-12-07T15:05:13;7.70;;;6.90;;
49031;SDS011;63443;48.366;10.876;2022-12-07T15:07:39;8.15;;;7.32;;
49031;SDS011;63443;48.366;10.876;2022-12-07T15:10:05;7.15;;;6.45;;
49031;SDS011;63443;48.366;10.876;2022-12-07T15:12:31;9.05;;;6.43;;
49031;SDS011;63443;48.366;10.876;2022-12-07T15:14:57;6.40;;;5.75;;
49031;SDS011;63443;48.366;10.876;2022-12-07T15:19:48;18.45;;;14.90;;
49031;SDS011;63443;48.366;10.876;2022-12-07T15:22:13;8.98;;;8.10;;
49031;SDS011;63443;48.366;10.876;2022-12-07T15:24:39;7.05;;;6.13;;
49031;SDS011;63443;48.366;10.876;2022-12-07T15:27:04;6.53;;;5.55;;
49031;SDS011;63443;48.366;10.876;2022-12-07T15:29:30;6.78;;;5.55;;
49031;SDS011;63443;48.366;10.876;2022-12-07T15:31:56;8.82;;;7.05;;
49031;SDS011;63443;48.366;10.876;2022-12-07T15:34:22;6.32;;;5.68;;
49031;SDS011;63443;48.366;10.876;2022-12-07T15:36:49;8.15;;;6.45;;
